• Join FlightAware (Why Join?)
  • Login
  • US Flag 
05:43PM EST


 

Airport Tracker/Info


-or-


 

Live Flight TrackerFlight Track Log ✈ UAL1107 ✈ 18-Mar-2014 ✈ KDEN - PANC

Flight Track Log - Related Links

Times and Time Zones

All times are in EDT time to prevent confusion due to time zone crossing. See the UAL1107 flight status page for this flight to view local times or setup timezone preferences in your user account.

Time Position Orientation Groundspeed Altitude Reporting Facility
EDT Latitude Longitude Course Direction KTS MPH feet Rate Location/Type
09:47PM 39.8691 -104.6871 North 111 128 5,200  Level FlightAware ADS-B (KEIK)
09:48PM 39.9056 -104.6868 North 194 223 6,000 1,200 Climbing FlightAware ADS-B (KEIK)
09:48PM 39.9060 -104.6868 354° North 196 226 6,400 2,460 Climbing FlightAware ADS-B
09:48PM 39.9328 -104.6923 346° North 207 238 7,200 2,100 Climbing FlightAware ADS-B (KEIK)
09:48PM 39.9536 -104.6995 345° North 222 255 7,900 2,340 Climbing FlightAware ADS-B (KEIK)
09:49PM 39.9734 -104.7065 345° North 225 259 8,800 2,280 Climbing FlightAware ADS-B (KEIK)
09:49PM 39.9939 -104.7137 345° North 241 277 9,400 1,740 Climbing FlightAware ADS-B (KEIK)
09:49PM 40.0094 -104.7191 345° North 251 289 9,800 1,680 Climbing FlightAware ADS-B (KBJC)
09:50PM 40.0509 -104.7336 342° North 281 323 10,900 1,620 Climbing FlightAware ADS-B (KEIK)
09:51PM 40.0947 -104.7536 340° North 308 354 11,700 1,380 Climbing FlightAware ADS-B (KEIK)
09:51PM 40.1395 -104.7750 340° North 338 389 12,400 1,800 Climbing FlightAware ADS-B
09:52PM 40.1987 -104.8030 340° North 352 405 13,900 2,340 Climbing FlightAware ADS-B (KEIK)
09:52PM 40.2587 -104.8307 340° North 358 412 15,500 2,520 Climbing FlightAware ADS-B (KEIK)
09:53PM 40.3105 -104.8555 340° North 357 411 17,100 2,400 Climbing FlightAware ADS-B (KBJC)
09:53PM 40.3587 -104.8779 341° North 362 417 18,100 1,920 Climbing FlightAware ADS-B (KEIK)
09:54PM 40.4119 -104.9026 340° North 372 428 19,100 1,740 Climbing FlightAware ADS-B
09:55PM 40.4701 -104.9295 340° North 389 448 20,300 1,620 Climbing FlightAware ADS-B
09:55PM 40.5508 -104.9671 340° North 400 460 21,300 1,800 Climbing FlightAware ADS-B (KEIK)
09:56PM 40.6186 -104.9992 340° North 404 465 22,700 1,800 Climbing FlightAware ADS-B (KEIK)
09:57PM 40.6977 -105.0367 340° North 412 474 23,900 1,440 Climbing FlightAware ADS-B (KEIK)
09:57PM 40.7342 -105.0544 330° Northwest 416 479 24,700 1,260 Climbing FlightAware ADS-B (KLHQ)
09:58PM 40.8149 -105.1234 319° Northwest 420 483 25,500 1,260 Climbing FlightAware ADS-B (KEIK)
09:59PM 40.8771 -105.1938 319° Northwest 428 493 26,300 1,080 Climbing FlightAware ADS-B (KEIK)
09:59PM 40.9238 -105.2468 319° Northwest 432 497 26,800 840 Climbing FlightAware ADS-B
10:00PM 40.9776 -105.3082 319° Northwest 443 510 27,300 1,020 Climbing FlightAware ADS-B (KEIK)
10:00PM 41.0299 -105.3681 319° Northwest 447 514 28,000 1,500 Climbing FlightAware ADS-B (KEIK)
10:01PM 41.0901 -105.4351 320° Northwest 443 510 29,100 1,980 Climbing FlightAware ADS-B (KEIK)
10:02PM 41.1484 -105.4996 320° Northwest 423 487 30,700 2,100 Climbing FlightAware ADS-B (KEIK)
10:02PM 41.2109 -105.5693 320° Northwest 412 474 32,000 1,620 Climbing FlightAware ADS-B (KEIK)
10:03PM 41.2537 -105.6173 320° Northwest 409 471 32,600 1,140 Climbing FlightAware ADS-B (KEIK)
10:03PM 41.3047 -105.6744 320° Northwest 407 468 33,200 720 Climbing FlightAware ADS-B (KEIK)
10:04PM 41.3810 -105.7602 320° Northwest 412 474 33,700 420 Climbing FlightAware ADS-B (KEIK)
10:05PM 41.4462 -105.8334 320° Northwest 414 476 34,000 180 Climbing FlightAware ADS-B (KEIK)
10:06PM 41.5011 -105.8953 320° Northwest 415 478 34,000  Level FlightAware ADS-B (KEIK)
10:06PM 41.5605 -105.9630 319° Northwest 414 476 34,000  Level FlightAware ADS-B (KEIK)
10:07PM 41.6176 -106.0278 320° Northwest 420 483 34,000  Level FlightAware ADS-B (KEIK)
10:07PM 41.6636 -106.0798 319° Northwest 421 484 34,000  Level FlightAware ADS-B (KEIK)
10:08PM 41.7492 -106.1777 320° Northwest 422 486 34,000  Level FlightAware ADS-B (KEIK)
10:09PM 41.7864 -106.2202 320° Northwest 423 487 34,000  Level FlightAware ADS-B (KEIK)
10:10PM 41.8416 -106.2835 319° Northwest 423 487 34,000  Level FlightAware ADS-B (KEIK)
10:10PM 41.8922 -106.3418 320° Northwest 422 486 34,000  Level FlightAware ADS-B (KEIK)
10:11PM 41.9630 -106.4229 319° Northwest 421 484 34,000  Level FlightAware ADS-B (KEIK)
10:12PM 42.0286 -106.4987 319° Northwest 419 482 34,000  Level FlightAware ADS-B (KEIK)
10:12PM 42.0744 -106.5553 319° Northwest 421 484 34,000  Level Salt Lake Center
10:13PM 42.1233 -106.6100 320° Northwest 415 478 34,000  Level Denver Center
10:14PM 42.2078 -106.7067 320° Northwest 416 479 34,000  Level Denver Center
10:15PM 42.3047 -106.8208 319° Northwest 416 479 34,000  Level Denver Center
10:16PM 42.3886 -106.9183 319° Northwest 416 479 34,000  Level Denver Center
10:17PM 42.4850 -107.0333 319° Northwest 416 479 34,000  Level Denver Center
10:18PM 42.5694 -107.1325 319° Northwest 416 479 34,000  Level Denver Center
10:19PM 42.6664 -107.2481 319° Northwest 417 480 34,000  Level Denver Center
10:20PM 42.7508 -107.3483 319° Northwest 419 482 34,000  Level Denver Center
10:21PM 42.8486 -107.4647 319° Northwest 420 483 34,000  Level Denver Center
10:22PM 42.9303 -107.5642 318° Northwest 420 483 34,000  Level Denver Center
10:23PM 43.0297 -107.6825 319° Northwest 420 483 34,000  Level Denver Center
10:24PM 43.1131 -107.7847 318° Northwest 420 483 34,000  Level Denver Center
10:25PM 43.2264 -107.9256 318° Northwest 420 483 34,000  Level Salt Lake Center
10:26PM 43.3131 -108.0314 318° Northwest 419 482 34,000  Level Salt Lake Center
10:27PM 43.3994 -108.1364 319° Northwest 417 480 34,000  Level Salt Lake Center
10:29PM 43.5025 -108.2647 318° Northwest 417 480 34,000  Level Salt Lake Center
10:30PM 43.5886 -108.3714 318° Northwest 417 480 34,000  Level Salt Lake Center
10:31PM 43.6747 -108.4786 318° Northwest 417 480 34,000  Level Salt Lake Center
10:32PM 43.7625 -108.5867 318° Northwest 418 481 34,000  Level Salt Lake Center
10:33PM 43.8486 -108.6953 318° Northwest 418 481 34,000  Level Salt Lake Center
10:34PM 43.9342 -108.8036 318° Northwest 418 481 34,000  Level Salt Lake Center
10:35PM 44.0211 -108.9119 318° Northwest 418 481 34,000  Level Salt Lake Center
10:36PM 44.1053 -109.0208 317° Northwest 417 480 34,000  Level Salt Lake Center
10:37PM 44.2078 -109.1494 318° Northwest 416 479 34,000  Level Salt Lake Center
10:38PM 44.2919 -109.2583 317° Northwest 415 478 34,000  Level Salt Lake Center
10:39PM 44.3767 -109.3656 318° Northwest 414 476 34,000  Level Salt Lake Center
10:40PM 44.4669 -109.4792 318° Northwest 414 476 34,000  Level Salt Lake Center
10:41PM 44.5458 -109.5817 317° Northwest 412 474 34,000  Level Salt Lake Center
10:42PM 44.6281 -109.6922 316° Northwest 410 472 34,000  Level Salt Lake Center
10:43PM 44.7117 -109.8003 317° Northwest 408 470 34,000  Level Salt Lake Center
10:44PM 44.8111 -109.9297 317° Northwest 410 472 34,000  Level Salt Lake Center
10:45PM 44.8919 -110.0356 317° Northwest 413 475 34,000  Level Salt Lake Center
10:46PM 44.9714 -110.1425 316° Northwest 413 475 34,000  Level Salt Lake Center
10:47PM 45.0661 -110.2675 317° Northwest 416 479 34,000  Level Salt Lake Center
10:48PM 45.1486 -110.3778 317° Northwest 415 478 34,000  Level Salt Lake Center
10:49PM 45.2308 -110.4869 317° Northwest 409 471 34,000  Level Salt Lake Center
10:50PM 45.3203 -110.6072 317° Northwest 408 470 34,000  Level Salt Lake Center
10:51PM 45.4042 -110.7200 317° Northwest 408 470 34,000  Level Salt Lake Center
10:52PM 45.4875 -110.8347 316° Northwest 408 470 34,000  Level Salt Lake Center
10:53PM 45.5706 -110.9478 316° Northwest 408 470 34,000  Level Salt Lake Center
10:54PM 45.6547 -111.0631 316° Northwest 408 470 34,000  Level Salt Lake Center
10:55PM 45.7381 -111.1783 316° Northwest 408 470 34,000  Level Salt Lake Center
10:56PM 45.8211 -111.2936 316° Northwest 404 465 34,000 180 Level Salt Lake Center
10:57PM 45.9033 -111.4089 316° Northwest 403 464 34,400 420 Climbing Salt Lake Center
10:58PM 45.9856 -111.5244 316° Northwest 404 465 34,900 600 Climbing Salt Lake Center
10:59PM 46.0686 -111.6408 316° Northwest 408 470 35,700 480 Climbing Salt Lake Center
11:00PM 46.1506 -111.7569 316° Northwest 407 468 36,000 120 Climbing Salt Lake Center
11:01PM 46.2311 -111.8719 315° West 402 463 36,000  Level Salt Lake Center
11:02PM 46.3119 -111.9881 315° West 402 463 36,000  Level Salt Lake Center
11:03PM 46.3997 -112.1125 316° Northwest 402 463 36,000  Level Salt Lake Center
11:04PM 46.4758 -112.2172 317° Northwest 404 465 36,000  Level Salt Lake Center
11:05PM 46.5561 -112.3331 315° West 406 467 36,000 -60 Level Salt Lake Center
11:06PM 46.6375 -112.4500 315° West 407 468 35,900  Descending Salt Lake Center
11:08PM 46.7178 -112.5683 315° West 409 471 36,000  Climbing Salt Lake Center
11:09PM 46.8000 -112.6861 316° Northwest 412 474 36,000  Level Salt Lake Center
11:10PM 46.8803 -112.8039 315° West 411 473 36,000 -60 Level Salt Lake Center
11:11PM 46.9656 -112.9289 315° West 406 467 35,900  Descending Salt Lake Center
11:12PM 47.0422 -113.0436 314° West 400 460 36,000  Climbing Salt Lake Center
11:13PM 47.1194 -113.1561 315° West 394 453 35,900  Descending Salt Lake Center
11:14PM 47.2086 -113.2922 314° West 387 445 36,000  Climbing Salt Lake Center
11:15PM 47.2831 -113.4031 315° West 386 444 35,900  Descending Salt Lake Center
11:16PM 47.3547 -113.5131 314° West 376 433 36,000  Climbing Salt Lake Center
11:17PM 47.4272 -113.6211 315° West 375 432 36,000  Level Salt Lake Center
11:18PM 47.5006 -113.7317 314° West 375 432 36,000  Level Salt Lake Center
11:19PM 47.5739 -113.8428 314° West 376 433 36,000  Level Salt Lake Center
11:20PM 47.6464 -113.9542 314° West 378 435 36,000  Level Salt Lake Center
11:21PM 47.7194 -114.0656 314° West 377 434 36,000 -60 Level Salt Lake Center
11:22PM 47.7928 -114.1786 314° West 377 434 35,900 -60 Descending Salt Lake Center
11:23PM 47.8658 -114.2925 314° West 377 434 35,900  Level Salt Lake Center
11:24PM 47.9428 -114.4086 315° West 379 436 35,900  Level Salt Lake Center
11:25PM 48.0172 -114.5278 313° West 381 438 35,900  Level Salt Lake Center
11:26PM 48.0928 -114.6456 314° West 382 440 36,000  Climbing Salt Lake Center
11:27PM 48.1825 -114.7883 313° West 388 447 36,000  Level Salt Lake Center
11:28PM 48.2575 -114.9067 314° West 389 448 36,000  Level Salt Lake Center
11:29PM 48.3300 -115.0222 313° West 387 445 36,000 -60 Level Salt Lake Center
11:30PM 48.4025 -115.1378 313° West 385 443 35,900 -60 Descending Salt Lake Center
11:31PM 48.4742 -115.2536 313° West 383 441 35,900  Level Salt Lake Center
11:32PM 48.5453 -115.3692 313° West 381 438 36,000  Climbing Salt Lake Center
11:33PM 48.6169 -115.4836 313° West 379 436 36,000  Level Salt Lake Center
11:34PM 48.6883 -115.5997 313° West 379 436 36,000  Level Salt Lake Center
11:35PM 48.7333 -115.6667 316° Northwest 380 437 36,000  Level Vancouver Center
11:36PM 48.8000 -115.7833 311° West 380 437 36,000  Level Vancouver Center
11:37PM 48.8833 -115.9000 317° Northwest 380 437 36,000  Level Vancouver Center
11:38PM 48.9500 -116.0167 311° West 380 437 36,000  Level Vancouver Center
11:39PM 49.0167 -116.1333 311° West 380 437 36,000  Level Vancouver Center
11:40PM 49.0833 -116.2500 311° West 380 437 36,000  Level Vancouver Center
11:41PM 49.1667 -116.3833 314° West 380 437 36,000  Level Vancouver Center
11:42PM 49.2167 -116.5000 303° West 380 437 36,000  Level Vancouver Center
11:43PM 49.3000 -116.6333 314° West 380 437 36,000  Level Vancouver Center
11:44PM 49.3667 -116.7500 311° West 390 449 36,000  Level Vancouver Center
11:45PM 49.4500 -116.8667 318° Northwest 390 449 36,000  Level Vancouver Center
11:46PM 49.5167 -116.9833 311° West 390 449 36,000  Level Vancouver Center
11:47PM 49.6000 -117.1167 314° West 390 449 36,000  Level Vancouver Center
11:48PM 49.6667 -117.2500 308° West 390 449 36,000  Level Vancouver Center
11:49PM 49.7167 -117.3667 304° West 390 449 36,000  Level Vancouver Center
11:50PM 49.8000 -117.5167 311° West 390 449 36,000  Level Vancouver Center
11:51PM 49.8667 -117.6333 312° West 390 449 36,000  Level Vancouver Center
11:52PM 49.9500 -117.7500 318° Northwest 390 449 36,000  Level Vancouver Center
11:53PM 50.0167 -117.8667 312° West 390 449 36,000  Level Vancouver Center
11:54PM 50.1000 -118.0000 314° West 400 460 36,000  Level Vancouver Center
11:55PM 50.1667 -118.1333 308° West 400 460 36,000  Level Vancouver Center
11:56PM 50.2333 -118.2667 308° West 400 460 36,000  Level Vancouver Center
11:57PM 50.3167 -118.4167 311° West 400 460 36,000  Level Vancouver Center
11:58PM 50.3833 -118.5333 312° West 400 460 36,000  Level Vancouver Center
11:59PM 50.4667 -118.6500 318° Northwest 400 460 36,000  Level Vancouver Center
12:00AM 50.5167 -118.8000 298° West 400 460 36,000  Level Vancouver Center
12:01AM 50.6000 -118.9333 315° West 400 460 36,000  Level Vancouver Center
12:02AM 50.6667 -119.0500 312° West 390 449 36,000  Level Vancouver Center
12:03AM 50.7333 -119.1833 308° West 390 449 36,000  Level Vancouver Center
12:04AM 50.8000 -119.3333 305° West 400 460 36,000  Level Vancouver Center
12:05AM 50.8833 -119.4500 319° Northwest 400 460 36,000  Level Vancouver Center
12:06AM 50.9500 -119.6167 302° West 400 460 36,000  Level Vancouver Center
12:07AM 51.0167 -119.7333 312° West 400 460 36,000  Level Vancouver Center
12:08AM 51.0833 -119.8667 309° West 400 460 36,000  Level Vancouver Center
12:09AM 51.1667 -120.0167 312° West 390 449 36,000  Level Vancouver Center
12:10AM 51.2333 -120.1500 309° West 390 449 36,000  Level Vancouver Center
12:11AM 51.2833 -120.2667 304° West 390 449 36,000  Level Vancouver Center
12:12AM 51.3667 -120.4000 315° West 390 449 36,000  Level Vancouver Center
12:13AM 51.4333 -120.5500 306° West 390 449 36,000  Level Vancouver Center
12:14AM 51.5000 -120.6833 309° West 390 449 36,000  Level Vancouver Center
12:15AM 51.5667 -120.8167 309° West 390 449 36,000  Level Vancouver Center
12:16AM 51.6333 -120.9667 306° West 390 449 36,000  Level Vancouver Center
12:17AM 51.7167 -121.1000 315° West 390 449 36,000  Level Vancouver Center
12:18AM 51.7833 -121.2333 309° West 400 460 36,000  Level Vancouver Center
12:19AM 51.8500 -121.3667 309° West 390 449 36,000  Level Vancouver Center
12:20AM 51.9167 -121.5167 306° West 400 460 36,000  Level Vancouver Center
12:21AM 51.9833 -121.6500 309° West 390 449 36,000  Level Vancouver Center
12:22AM 52.0500 -121.7833 309° West 390 449 36,000  Level Vancouver Center
12:23AM 52.1167 -121.9500 303° West 390 449 36,000  Level Vancouver Center
12:24AM 52.1833 -122.0833 309° West 390 449 36,000  Level Vancouver Center
12:25AM 52.2500 -122.2167 309° West 390 449 36,000  Level Vancouver Center
12:26AM 52.3167 -122.3500 309° West 400 460 36,000  Level Vancouver Center
12:27AM 52.3833 -122.4833 309° West 400 460 36,000  Level Vancouver Center
12:28AM 52.4667 -122.6167 316° Northwest 400 460 36,000  Level Vancouver Center
12:29AM 52.5333 -122.7500 309° West 410 472 36,000  Level Vancouver Center
12:30AM 52.6167 -122.9167 310° West 410 472 36,000  Level Vancouver Center
12:31AM 52.6833 -123.0500 310° West 410 472 36,000  Level Vancouver Center
12:32AM 52.7667 -123.1833 316° Northwest 410 472 36,000  Level Vancouver Center
12:33AM 52.8500 -123.3333 313° West 410 472 36,000  Level Vancouver Center
12:34AM 52.9167 -123.5000 304° West 420 483 36,000  Level Vancouver Center
12:35AM 53.0000 -123.6333 316° Northwest 420 483 36,000  Level Vancouver Center
12:36AM 53.0667 -123.7667 310° West 420 483 36,000  Level Vancouver Center
12:37AM 53.1500 -123.9333 310° West 420 483 36,000  Level Vancouver Center
12:38AM 53.2167 -124.0833 307° West 420 483 36,000  Level Vancouver Center
12:39AM 53.3000 -124.2500 310° West 430 495 36,000  Level Vancouver Center
12:40AM 53.3833 -124.3833 316° Northwest 430 495 36,000  Level Vancouver Center
12:41AM 53.4500 -124.5500 304° West 430 495 36,000  Level Vancouver Center
12:42AM 53.5167 -124.7000 307° West 430 495 36,000  Level Vancouver Center
12:43AM 53.5833 -124.8667 304° West 430 495 36,000  Level Vancouver Center
12:44AM 53.6667 -125.0000 317° Northwest 430 495 36,000  Level Vancouver Center
12:45AM 53.7500 -125.1833 308° West 430 495 36,000  Level Vancouver Center
12:46AM 53.8167 -125.3167 310° West 440 506 36,000  Level Vancouver Center
12:47AM 53.9000 -125.5000 308° West 440 506 36,000  Level Vancouver Center
12:48AM 53.9833 -125.6333 317° Northwest 440 506 36,000  Level Vancouver Center
12:49AM 54.0500 -125.8167 302° West 440 506 36,000  Level Vancouver Center
12:50AM 54.1333 -125.9833 311° West 440 506 36,000  Level Vancouver Center
12:51AM 54.2000 -126.1333 307° West 440 506 36,000  Level Vancouver Center
12:52AM 54.2833 -126.3167 308° West 440 506 36,000  Level Vancouver Center
12:53AM 54.3500 -126.4667 307° West 440 506 36,000  Level Vancouver Center
12:54AM 54.4333 -126.6333 311° West 440 506 36,000  Level Vancouver Center
12:55AM 54.5167 -126.8167 308° West 440 506 36,000  Level Vancouver Center
12:56AM 54.5833 -126.9667 308° West 440 506 36,000  Level Vancouver Center
12:57AM 54.6667 -127.1500 308° West 440 506 36,000  Level Vancouver Center
12:58AM 54.7333 -127.3000 308° West 440 506 36,000  Level Vancouver Center
12:59AM 54.8167 -127.4667 311° West 440 506 36,000  Level Vancouver Center
01:00AM 54.8833 -127.6167 308° West 440 506 36,000  Level Vancouver Center
01:01AM 54.9667 -127.8000 308° West 440 506 36,000  Level Vancouver Center
01:02AM 55.0500 -127.9667 311° West 440 506 36,000  Level Vancouver Center
01:03AM 55.1167 -128.1167 308° West 440 506 36,000  Level Vancouver Center
01:04AM 55.1833 -128.3000 303° West 430 495 36,000  Level Vancouver Center
01:05AM 55.2667 -128.4500 314° West 440 506 36,000  Level Vancouver Center
01:06AM 55.3333 -128.6333 303° West 440 506 36,000  Level Vancouver Center
01:07AM 55.4167 -128.8000 311° West 440 506 36,000  Level Vancouver Center
01:08AM 55.4833 -128.9833 303° West 450 518 36,000  Level Vancouver Center
01:09AM 55.5667 -129.1667 309° West 440 506 36,000  Level Vancouver Center
01:10AM 55.6333 -129.3167 308° West 450 518 36,000  Level Vancouver Center
01:11AM 55.7167 -129.5167 307° West 440 506 36,000  Level Vancouver Center
01:12AM 55.7833 -129.6667 308° West 440 506 36,000  Level Vancouver Center
01:13AM 55.8500 -129.8333 306° West 440 506 36,000  Level Vancouver Center
01:14AM 55.9333 -130.0167 309° West 440 506 36,000  Level Vancouver Center
01:15AM 55.9833 -130.1833 298° West 440 506 36,000  Level Vancouver Center
01:16AM 56.0667 -130.3667 309° West 440 506 36,000  Level Vancouver Center
01:17AM 56.1333 -130.5667 301° West 450 518 36,000  Level Vancouver Center
01:18AM 56.2167 -130.7500 309° West 450 518 36,000  Level Vancouver Center
01:19AM 56.2667 -130.9500 294° West 450 518 36,000  Level Vancouver Center
01:20AM 56.3333 -131.1333 303° West 450 518 36,000  Level Vancouver Center
01:21AM 56.4167 -131.3333 307° West 450 518 36,000  Level Vancouver Center
01:22AM 56.4833 -131.5333 301° West 450 518 36,000  Level Vancouver Center
01:23AM 56.5500 -131.7000 306° West 440 506 36,000  Level Vancouver Center
01:24AM 56.6167 -131.8667 306° West 450 518 36,000  Level Vancouver Center
01:25AM 56.6833 -132.0500 304° West 450 518 36,000  Level Vancouver Center
01:26AM 56.7500 -132.2500 301° West 430 495 36,000  Level Vancouver Center
01:27AM 56.8000 -132.4500 295° West 450 518 36,000  Level Vancouver Center
01:28AM 56.9000 -132.6333 315° West 440 506 36,000  Level Anchorage Center
01:29AM 56.9667 -132.8167 304° West 450 518 36,000  Level Anchorage Center
01:30AM 57.0333 -133.0167 302° West 450 518 36,000  Level Anchorage Center
01:31AM 57.1000 -133.2167 302° West 450 518 36,000  Level Anchorage Center
01:32AM 57.1667 -133.4000 304° West 450 518 36,000  Level Anchorage Center
01:33AM 57.2333 -133.6000 302° West 450 518 36,000  Level Anchorage Center
01:34AM 57.2833 -133.8000 295° West 450 518 36,000  Level Anchorage Center
01:35AM 57.3500 -133.9833 304° West 450 518 36,000  Level Anchorage Center
01:36AM 57.4167 -134.1833 302° West 440 506 36,000  Level Anchorage Center
01:37AM 57.4833 -134.3833 302° West 440 506 36,000  Level Anchorage Center
01:38AM 57.5500 -134.5667 304° West 450 518 36,000  Level Anchorage Center
01:39AM 57.6167 -134.7667 302° West 450 518 36,000  Level Anchorage Center
01:40AM 57.6667 -134.9667 295° West 450 518 36,000  Level Anchorage Center
01:41AM 57.7333 -135.1667 302° West 450 518 36,000  Level Anchorage Center
01:42AM 57.8000 -135.3833 300° West 450 518 36,000  Level Anchorage Center
01:43AM 57.8667 -135.5833 302° West 450 518 36,000  Level Anchorage Center
01:44AM 57.9167 -135.7833 295° West 450 518 36,000  Level Anchorage Center
01:45AM 57.9833 -135.9833 302° West 440 506 36,000  Level Anchorage Center
01:46AM 58.0500 -136.1833 302° West 450 518 36,000  Level Anchorage Center
01:47AM 58.1000 -136.3833 295° West 440 506 36,000  Level Anchorage Center
01:48AM 58.1667 -136.5833 302° West 440 506 36,000  Level Anchorage Center
01:49AM 58.2167 -136.8000 294° West 450 518 36,000  Level Anchorage Center
01:50AM 58.2833 -137.0000 302° West 450 518 36,000  Level Anchorage Center
01:51AM 58.3500 -137.2167 300° West 450 518 36,000  Level Anchorage Center
01:52AM 58.4000 -137.4167 296° West 450 518 36,000  Level Anchorage Center
01:53AM 58.4667 -137.6333 301° West 460 529 36,000  Level Anchorage Center
01:54AM 58.5333 -137.8500 301° West 450 518 36,000  Level Anchorage Center
01:55AM 58.5833 -138.0667 294° West 460 529 36,000  Level Anchorage Center
01:56AM 58.6500 -138.2833 301° West 460 529 36,000  Level Anchorage Center
01:57AM 58.7000 -138.5000 294° West 450 518 36,000  Level Anchorage Center
01:58AM 58.7667 -138.7167 301° West 450 518 36,000  Level Anchorage Center
01:59AM 58.8167 -138.9333 294° West 450 518 36,000  Level Anchorage Center
02:00AM 58.8667 -139.1500 294° West 450 518 36,000  Level Anchorage Center
02:01AM 58.9333 -139.3667 301° West 450 518 36,000  Level Anchorage Center
02:02AM 58.9833 -139.5833 294° West 440 506 36,000  Level Anchorage Center
02:03AM 59.0500 -139.8000 301° West 440 506 36,000  Level Anchorage Center
02:04AM 59.1000 -140.0167 294° West 440 506 36,000  Level Anchorage Center
02:05AM 59.1500 -140.2333 294° West 440 506 36,000  Level Anchorage Center
02:06AM 59.2000 -140.4500 294° West 440 506 36,000  Level Anchorage Center
02:07AM 59.2667 -140.6667 301° West 450 518 36,000  Level Anchorage Center
02:08AM 59.3167 -140.9000 293° West 450 518 36,000  Level Anchorage Center
02:09AM 59.3667 -141.1167 294° West 450 518 36,000  Level Anchorage Center
02:10AM 59.4167 -141.3500 293° West 440 506 36,000  Level Anchorage Center
02:11AM 59.4833 -141.5667 301° West 450 518 36,000  Level Anchorage Center
02:12AM 59.5333 -141.8000 293° West 450 518 36,000  Level Anchorage Center
02:13AM 59.5833 -142.0167 295° West 450 518 36,000  Level Anchorage Center
02:14AM 59.6333 -142.2500 293° West 450 518 36,000  Level Anchorage Center
02:15AM 59.6833 -142.4667 295° West 450 518 36,000  Level Anchorage Center
02:16AM 59.7333 -142.7000 293° West 450 518 36,000  Level Anchorage Center
02:17AM 59.7833 -142.9167 295° West 440 506 36,000  Level Anchorage Center
02:18AM 59.8333 -143.1500 293° West 450 518 36,000  Level Anchorage Center
02:19AM 59.8833 -143.3667 295° West 450 518 36,000  Level Anchorage Center
02:20AM 59.9333 -143.5833 295° West 440 506 36,000  Level Anchorage Center
02:21AM 59.9833 -143.8167 293° West 450 518 36,000  Level Anchorage Center
02:28AM 60.2927 -145.3362 292° West 449 517 36,000  Level FlightAware ADS-B (PAEN / ENA)
02:28AM 60.3262 -145.5078 291° West 450 518 36,000  Level FlightAware ADS-B (PAEN / ENA)
02:29AM 60.3489 -145.6254 291° West 450 518 36,000  Level FlightAware ADS-B (PAEN / ENA)
02:30AM 60.3824 -145.8004 291° West 451 519 36,000  Level FlightAware ADS-B (PAEN / ENA)
02:30AM 60.4162 -145.9774 291° West 451 519 36,000  Level FlightAware ADS-B (PAEN / ENA)
02:31AM 60.4385 -146.0960 291° West 450 518 36,000  Level FlightAware ADS-B (PAEN / ENA)
02:32AM 60.4716 -146.2722 291° West 451 519 36,000  Level FlightAware ADS-B (PAEN / ENA)
02:32AM 60.5053 -146.4514 291° West 450 518 36,000  Level FlightAware ADS-B (PAEN / ENA)
02:33AM 60.5375 -146.6257 290° West 450 518 36,000  Level FlightAware ADS-B (PAEN / ENA)
02:34AM 60.5582 -146.7394 290° West 450 518 36,000  Level FlightAware ADS-B (PAEN / ENA)
02:34AM 60.5858 -146.8908 290° West 448 516 36,000  Level FlightAware ADS-B
02:35AM 60.6129 -147.0416 290° West 447 514 36,000 -840 Level FlightAware ADS-B (PAEN / ENA)
02:35AM 60.6355 -147.1602 296° West 442 509 35,100 -2,220 Descending FlightAware ADS-B
02:36AM 60.6591 -147.2337 309° West 444 511 34,100 -3,000 Descending FlightAware ADS-B
02:36AM 60.7095 -147.3560 310° West 444 511 32,200 -2,580 Descending FlightAware ADS-B (PAEN / ENA)
02:37AM 60.7663 -147.4980 309° West 428 493 30,600 -2,160 Descending FlightAware ADS-B (PAEN / ENA)
02:38AM 60.8042 -147.5937 309° West 420 483 29,500 -2,040 Descending FlightAware ADS-B (PAEN / ENA)
02:38AM 60.8396 -147.6827 309° West 409 471 28,600 -2,040 Descending FlightAware ADS-B (PAEN / ENA)
02:39AM 60.8746 -147.7713 309° West 399 459 27,500 -2,040 Descending FlightAware ADS-B (PAEN / ENA)
02:39AM 60.9244 -147.9023 308° West 384 442 26,100 -1,920 Descending FlightAware ADS-B (PAEN / ENA)
02:40AM 60.9572 -147.9893 308° West 374 430 25,100 -1,920 Descending FlightAware ADS-B (PAEN / ENA)
02:41AM 61.0002 -148.1061 302° West 362 417 23,800 -1,740 Descending FlightAware ADS-B
02:41AM 61.0125 -148.1649 286° West 369 425 23,400 -1,140 Descending FlightAware ADS-B (PAEN / ENA)
02:41AM 61.0167 -148.2172 274° West 376 433 23,200 -1,080 Descending FlightAware ADS-B (PAEN / ENA)
02:42AM 61.0160 -148.3204 269° West 367 422 22,600 -1,620 Descending FlightAware ADS-B (PAEN / ENA)
02:42AM 61.0147 -148.4236 269° West 362 417 21,600 -2,280 Descending FlightAware ADS-B (PAEN / ENA)
02:43AM 61.0129 -148.5544 268° West 364 419 20,100 -2,100 Descending FlightAware ADS-B
02:43AM 61.0116 -148.6485 268° West 349 402 19,300 -1,320 Descending FlightAware ADS-B
02:44AM 61.0100 -148.7546 268° West 324 373 18,800 -1,620 Descending FlightAware ADS-B
02:44AM 61.0083 -148.8676 268° West 321 369 17,500 -2,100 Descending FlightAware ADS-B (PAEN / ENA)
02:45AM 61.0068 -148.9570 268° West 315 362 16,500 -2,040 Descending FlightAware ADS-B (PAEN / ENA)
02:45AM 61.0050 -149.0485 267° West 312 359 15,500 -2,040 Descending FlightAware ADS-B (PAEN / ENA)
02:46AM 61.0023 -149.1360 266° West 311 358 14,500 -1,800 Descending FlightAware ADS-B (PAEN / ENA)
02:46AM 60.9994 -149.2197 266° West 304 350 13,700 -1,800 Descending FlightAware ADS-B (PAEN / ENA)
02:47AM 60.9961 -149.3106 265° West 302 348 12,700 -2,040 Descending FlightAware ADS-B (PAEN / ENA)
02:47AM 60.9927 -149.3970 266° West 300 345 11,700 -1,800 Descending FlightAware ADS-B (PAEN / ENA)
02:48AM 60.9890 -149.4783 264° West 290 334 10,900 -1,800 Descending FlightAware ADS-B (PAEN / ENA)
02:48AM 60.9846 -149.5620 263° West 290 334 9,900 -1,740 Descending FlightAware ADS-B (PAEN / ENA)
02:49AM 60.9824 -149.5997 263° West 290 334 9,600 -1,440 Descending FlightAware ADS-B (PAEN / ENA)
02:49AM 60.9800 -149.6413 263° West 290 334 9,200 -1,200 Descending FlightAware ADS-B (PAEN / ENA)
02:49AM 60.9777 -149.6822 264° West 288 331 9,000 -1,200 Descending FlightAware ADS-B (PAEN / ENA)
02:49AM 60.9756 -149.7229 264° West 288 331 8,600 -1,440 Descending FlightAware ADS-B (PAEN / ENA)
02:50AM 60.9734 -149.7634 264° West 285 328 8,300 -1,080 Descending FlightAware ADS-B (PAEN / ENA)
02:50AM 60.9708 -149.8164 264° West 275 316 8,000 -780 Descending FlightAware ADS-B
02:50AM 60.9688 -149.8651 271° West 260 299 7,800 -720 Descending FlightAware ADS-B
02:50AM 60.9696 -149.8785 282° West 250 288 7,700 -900 Descending FlightAware ADS-B (PAEN / ENA)
02:51AM 60.9735 -149.9126 285° West 243 280 7,500 -1,020 Descending FlightAware ADS-B
02:51AM 60.9778 -149.9461 285° West 237 273 7,200 -1,260 Descending FlightAware ADS-B (PAEN / ENA)
02:51AM 60.9847 -149.9977 286° West 233 268 6,700 -1,260 Descending FlightAware ADS-B
02:52AM 60.9905 -150.0389 287° West 232 267 6,300 -1,140 Descending FlightAware ADS-B
02:52AM 60.9956 -150.0742 287° West 228 262 6,000 -960 Descending FlightAware ADS-B (PAEN / ENA)
02:52AM 61.0003 -150.1061 287° West 223 257 5,800 -1,500 Descending FlightAware ADS-B (PAEN / ENA)
02:52AM 61.0055 -150.1419 287° West 224 258 5,200 -1,980 Descending FlightAware ADS-B
02:53AM 61.0088 -150.1610 297° West 221 254 4,900 -1,500 Descending FlightAware ADS-B
02:53AM 61.0141 -150.1773 309° West 216 249 4,700 -1,560 Descending FlightAware ADS-B
02:53AM 61.0277 -150.2126 308° West 215 247 4,100 -1,680 Descending FlightAware ADS-B
02:53AM 61.0376 -150.2389 308° West 212 244 3,700 -1,440 Descending FlightAware ADS-B (PAEN / ENA)
02:54AM 61.0510 -150.2757 307° West 203 234 3,200 -960 Descending FlightAware ADS-B
02:54AM 61.0613 -150.3042 312° West 198 228 3,000 -1,020 Descending FlightAware ADS-B
02:54AM 61.0695 -150.3168 334° Northwest 190 219 2,700 -1,500 Descending FlightAware ADS-B
02:54AM 61.0750 -150.3202 348° North 188 216 2,600 -1,440 Descending FlightAware ADS-B (PAEN / ENA)
02:55AM 61.0877 -150.3253 349° North 185 213 2,200 -1,080 Descending FlightAware ADS-B (PAEN / ENA)
02:55AM 61.1029 -150.3313 349° North 183 211 2,000 -420 Descending FlightAware ADS-B
02:55AM 61.1085 -150.3335 350° North 182 209 2,000  Level FlightAware ADS-B (PAEN / ENA)
02:55AM 61.1251 -150.3379 356° North 184 212 2,000  Level FlightAware ADS-B (PAEN / ENA)
02:56AM 61.1375 -150.3392 359° North 187 215 2,000  Level FlightAware ADS-B (PAEN / ENA)
02:56AM 61.1457 -150.3392 North 188 216 2,000  Level FlightAware ADS-B
02:56AM 61.1497 -150.3386 North 188 216 2,000  Level FlightAware ADS-B (PAEN / ENA)
02:56AM 61.1535 -150.3366 20° North 189 217 2,000  Level FlightAware ADS-B
02:56AM 61.1608 -150.3275 43° Northeast 193 222 2,000  Level FlightAware ADS-B
02:56AM 61.1657 -150.3120 70° East 201 231 2,000  Level FlightAware ADS-B
02:56AM 61.1670 -150.2996 84° East 205 236 2,000  Level FlightAware ADS-B (PAEN / ENA)
02:57AM 61.1670 -150.2711 92° East 208 239 2,000 -240 Level FlightAware ADS-B (PAEN / ENA)
02:57AM 61.1673 -150.2420 88° East 199 229 1,900 -600 Descending FlightAware ADS-B (PAEN / ENA)
02:57AM 61.1674 -150.2153 90° East 196 226 1,700 -780 Descending FlightAware ADS-B
02:57AM 61.1675 -150.1845 89° East 185 213 1,500 -900 Descending FlightAware ADS-B (PAEN / ENA)
02:58AM 61.1674 -150.1456 88° East 167 192 1,100 -960 Descending FlightAware ADS-B
02:58AM 61.1676 -150.1143 89° East 153 176 800 -780 Descending FlightAware ADS-B
02:58AM 61.1677 -150.0868 89° East 150 173 600 -780 Descending FlightAware ADS-B
02:59AM 61.1678 -150.0579 90° East 151 174 300 -900 Descending FlightAware ADS-B